Newtok, Alaska
Current Conditions -  °F | °C
As of 4:53 AM on Friday 31 Oct 2014 (Local Time) from PABE Reporting Station
Scattered Clouds Scattered Clouds  
Wind Chill: -5°   Ceiling: Unl
Heat Index: 13°   Visibility: 10mi
Dew Point: 10°   Wind: 21mph
Humidity: 88%   Direction: 40°NE
Pressure: 29.31"   Gusts: 25mph
Location:  60.7494°N, 161.727°W
Report Text: PABE 311253Z 04018G22KT 10SM SCT008 M11/M12 A2931 RMK AO2 SLP928 T11061122
Loading
Personal Weather Stations






























Interactive Weather Map
Tropical Storm Tracking
New forecast layout! Learn more

10-Day Weather Forecast

Advertisements
Track Severe Weather on mobile